Time;durP1;ratioP1;P1;durP2;ratioP2;P2;SDS_P1;SDS_P2;PMS_P1;PMS_P2;Temp;Humidity;BMP_temperature;BMP_pressure;BME280_temperature;BME280_humidity;BME280_pressure;Samples;Min_cycle;Max_cycle;Signal;HPM_P1;HPM_P2
2023/01/08 00:02:50;;;;;;;2.08;1.30;;;10.20;99.90;;;;;;7294336;32;20169;-61
2023/01/08 00:06:52;;;;;;;2.55;1.05;;;10.20;99.90;;;;;;7295573;32;20104;-60
2023/01/08 00:10:54;;;;;;;1.67;1.00;;;10.10;99.90;;;;;;7294703;32;20505;-60
2023/01/08 00:14:56;;;;;;;2.50;1.17;;;10.20;99.90;;;;;;7296690;32;20208;-60
2023/01/08 00:18:57;;;;;;;1.95;0.80;;;10.10;99.90;;;;;;7295915;32;20142;-61
2023/01/08 00:22:59;;;;;;;1.15;0.77;;;10.10;99.90;;;;;;7298537;32;21081;-62
2023/01/08 00:27:01;;;;;;;1.25;0.93;;;10.10;99.90;;;;;;7296063;32;20131;-61
2023/01/08 00:31:04;;;;;;;1.33;1.08;;;10.00;99.90;;;;;;7293362;32;20290;-60
2023/01/08 00:35:07;;;;;;;1.48;1.00;;;10.10;99.90;;;;;;7293310;32;20256;-60
2023/01/08 00:39:08;;;;;;;1.58;0.90;;;10.00;99.90;;;;;;7291203;32;20805;-61
2023/01/08 00:43:10;;;;;;;2.12;1.00;;;10.00;99.90;;;;;;7297303;32;20243;-60
2023/01/08 00:47:12;;;;;;;1.35;1.00;;;10.10;99.90;;;;;;7296394;32;20214;-59
2023/01/08 00:51:13;;;;;;;1.90;1.10;;;10.10;99.90;;;;;;7289556;32;20827;-60
2023/01/08 00:55:15;;;;;;;1.98;1.00;;;10.20;99.90;;;;;;7279517;32;20149;-59
2023/01/08 00:59:17;;;;;;;1.27;0.90;;;10.10;99.90;;;;;;7294159;32;20323;-61
2023/01/08 01:03:19;;;;;;;1.65;1.12;;;10.10;99.90;;;;;;7293242;32;20603;-61
2023/01/08 01:07:20;;;;;;;2.00;1.40;;;10.10;99.90;;;;;;7292453;32;20134;-61
2023/01/08 01:11:25;;;;;;;2.97;1.25;;;10.10;99.90;;;;;;7293014;32;20108;-60
2023/01/08 01:15:26;;;;;;;1.77;1.17;;;10.10;99.90;;;;;;7295667;32;20691;-60
2023/01/08 01:19:28;;;;;;;1.73;0.98;;;10.00;99.90;;;;;;7293885;32;20231;-60
2023/01/08 01:23:30;;;;;;;1.50;1.00;;;10.00;99.90;;;;;;7291461;32;20178;-60
2023/01/08 01:27:31;;;;;;;3.75;1.40;;;10.00;99.90;;;;;;7289104;32;20186;-59
2023/01/08 01:31:33;;;;;;;1.90;1.10;;;10.00;99.90;;;;;;7294793;32;20222;-59
2023/01/08 01:35:35;;;;;;;3.22;1.10;;;10.00;99.90;;;;;;7292397;32;20100;-60
2023/01/08 01:39:37;;;;;;;1.85;1.05;;;10.00;99.90;;;;;;7292717;32;20104;-59
2023/01/08 01:43:42;;;;;;;5.47;1.20;;;10.10;99.90;;;;;;7296305;32;20561;-61
2023/01/08 01:47:56;;;;;;;2.15;1.15;;;10.10;99.90;;;;;;7288640;32;20687;-61
2023/01/08 01:52:01;;;;;;;1.00;0.90;;;10.10;99.90;;;;;;7293864;32;20112;-59
2023/01/08 01:56:03;;;;;;;2.25;1.20;;;10.00;99.90;;;;;;7295570;32;20215;-60
2023/01/08 02:00:08;;;;;;;3.45;1.40;;;10.00;99.90;;;;;;7294498;32;20251;-58
2023/01/08 02:04:11;;;;;;;2.92;0.95;;;10.00;99.90;;;;;;7295910;32;20202;-59
2023/01/08 02:08:23;;;;;;;2.58;1.10;;;9.90;99.90;;;;;;7292697;32;20223;-59
2023/01/08 02:12:34;;;;;;;2.70;1.30;;;9.80;99.90;;;;;;7291595;32;20100;-60
2023/01/08 02:16:45;;;;;;;2.28;1.23;;;9.80;99.90;;;;;;7290065;32;20542;-59
2023/01/08 02:21:13;;;;;;;5.00;1.40;;;9.80;99.90;;;;;;7294748;32;20210;-59
2023/01/08 02:25:19;;;;;;;2.30;1.30;;;9.80;99.90;;;;;;7282683;32;20295;-59
2023/01/08 02:29:23;;;;;;;4.85;1.67;;;9.70;99.90;;;;;;7293207;32;20147;-59
2023/01/08 02:33:30;;;;;;;2.10;1.40;;;9.70;99.90;;;;;;7293273;32;20157;-60
2023/01/08 02:37:32;;;;;;;4.87;1.75;;;9.60;99.90;;;;;;7290734;32;20124;-61
2023/01/08 02:41:53;;;;;;;3.17;1.62;;;9.60;99.90;;;;;;7293849;32;20145;-59
2023/01/08 02:45:59;;;;;;;6.15;1.67;;;9.60;99.90;;;;;;7288362;32;20623;-60
2023/01/08 02:50:32;;;;;;;2.37;1.67;;;9.60;99.90;;;;;;7292522;32;20223;-59
2023/01/08 02:54:35;;;;;;;4.30;1.80;;;9.60;99.90;;;;;;7290459;32;20210;-60
2023/01/08 02:58:39;;;;;;;4.62;2.12;;;9.60;99.90;;;;;;7289350;32;20096;-60
2023/01/08 03:02:42;;;;;;;4.68;1.95;;;9.60;99.90;;;;;;7289129;32;20508;-60
2023/01/08 03:06:44;;;;;;;2.28;1.55;;;9.70;99.90;;;;;;7288951;32;20116;-60
2023/01/08 03:10:51;;;;;;;2.40;1.67;;;9.60;99.90;;;;;;7292700;32;20754;-59
2023/01/08 03:15:06;;;;;;;2.70;1.62;;;9.60;99.90;;;;;;7290798;32;20115;-60
2023/01/08 03:19:14;;;;;;;1.90;1.48;;;9.60;99.90;;;;;;7262708;32;20161;-61
2023/01/08 03:23:18;;;;;;;2.90;1.65;;;9.60;99.90;;;;;;7295421;32;20719;-60
2023/01/08 03:27:25;;;;;;;2.75;1.40;;;9.60;99.90;;;;;;7294134;32;21260;-60
2023/01/08 03:31:28;;;;;;;4.80;1.92;;;9.60;99.90;;;;;;7291864;32;20293;-60
2023/01/08 03:35:31;;;;;;;1.92;1.45;;;9.60;99.90;;;;;;7295962;32;20128;-59
2023/01/08 03:39:50;;;;;;;2.00;1.42;;;9.60;99.90;;;;;;7296589;32;20123;-61
2023/01/08 03:43:52;;;;;;;3.62;1.40;;;9.60;99.90;;;;;;7291421;32;20548;-59
2023/01/08 03:47:55;;;;;;;4.10;1.40;;;9.60;99.90;;;;;;7296248;32;20130;-60
2023/01/08 03:51:57;;;;;;;5.40;1.58;;;9.60;99.90;;;;;;7295203;32;20209;-60
2023/01/08 03:55:59;;;;;;;2.58;1.73;;;9.60;99.90;;;;;;7298354;32;20104;-61
2023/01/08 04:00:00;;;;;;;3.37;1.52;;;9.60;99.90;;;;;;7292685;32;20492;-60
2023/01/08 04:04:02;;;;;;;2.30;1.42;;;9.60;99.90;;;;;;7293706;32;20857;-60
2023/01/08 04:08:04;;;;;;;2.97;1.70;;;9.60;99.90;;;;;;7296124;32;20108;-60
2023/01/08 04:12:06;;;;;;;2.50;1.60;;;9.60;99.90;;;;;;7296628;32;20194;-60
2023/01/08 04:16:08;;;;;;;2.37;1.70;;;9.60;99.90;;;;;;7296223;32;20187;-61
2023/01/08 04:20:10;;;;;;;3.25;1.70;;;9.50;99.90;;;;;;7295513;32;20214;-61
2023/01/08 04:24:12;;;;;;;3.25;1.52;;;9.60;99.90;;;;;;7297075;32;20123;-59
2023/01/08 04:28:14;;;;;;;2.95;1.52;;;9.60;99.90;;;;;;7288777;32;20196;-60
2023/01/08 04:32:15;;;;;;;4.75;1.83;;;9.60;99.90;;;;;;7280919;32;20104;-59
2023/01/08 04:36:17;;;;;;;3.33;1.60;;;9.60;99.90;;;;;;7298423;32;20187;-60
2023/01/08 04:40:19;;;;;;;3.45;1.60;;;9.60;99.90;;;;;;7291299;32;20635;-60
2023/01/08 04:44:21;;;;;;;2.70;1.87;;;9.60;99.90;;;;;;7297533;32;20131;-61
2023/01/08 04:48:23;;;;;;;2.70;1.42;;;9.50;99.90;;;;;;7296155;32;20195;-61
2023/01/08 04:52:26;;;;;;;4.32;1.70;;;9.50;99.90;;;;;;7293937;32;20404;-61
2023/01/08 04:56:28;;;;;;;4.22;1.80;;;9.40;99.90;;;;;;7295598;32;20553;-61
2023/01/08 05:00:30;;;;;;;2.37;1.85;;;9.40;99.90;;;;;;7281894;32;20214;-62
2023/01/08 05:04:31;;;;;;;2.50;1.50;;;9.30;99.90;;;;;;7289003;32;20191;-60
2023/01/08 05:08:33;;;;;;;2.83;1.80;;;9.40;99.90;;;;;;7298064;32;20100;-59
2023/01/08 05:12:35;;;;;;;3.28;1.67;;;9.30;99.90;;;;;;7293987;32;20104;-60
2023/01/08 05:16:36;;;;;;;2.78;1.67;;;9.30;99.90;;;;;;7296526;32;20114;-60
2023/01/08 05:20:38;;;;;;;3.37;1.55;;;9.30;99.90;;;;;;7291391;32;20204;-63
2023/01/08 05:24:40;;;;;;;2.65;1.40;;;9.40;99.90;;;;;;7290611;32;20100;-60
2023/01/08 05:28:41;;;;;;;3.00;1.65;;;9.40;99.90;;;;;;7292662;32;20100;-60
2023/01/08 05:32:43;;;;;;;1.83;1.35;;;9.40;99.90;;;;;;7288729;32;20261;-60
2023/01/08 05:36:45;;;;;;;2.87;1.12;;;9.40;99.90;;;;;;7293330;32;20108;-60
2023/01/08 05:40:46;;;;;;;2.12;1.10;;;9.40;99.90;;;;;;7294514;32;20604;-61
2023/01/08 05:44:48;;;;;;;2.08;1.08;;;9.30;99.90;;;;;;7292243;32;20108;-60
2023/01/08 05:48:50;;;;;;;1.95;1.15;;;9.40;99.90;;;;;;7292929;32;20395;-61
2023/01/08 05:52:51;;;;;;;1.77;1.00;;;9.40;99.90;;;;;;7293182;32;20149;-60
2023/01/08 05:56:53;;;;;;;1.87;1.05;;;9.40;99.90;;;;;;7294782;32;20210;-61
2023/01/08 06:01:02;;;;;;;3.47;1.17;;;9.40;99.90;;;;;;7292684;32;20161;-60
2023/01/08 06:05:04;;;;;;;1.80;1.10;;;9.40;99.90;;;;;;7291629;32;20229;-60
2023/01/08 06:09:06;;;;;;;1.67;1.00;;;9.30;99.90;;;;;;7293367;32;20179;-59
2023/01/08 06:13:09;;;;;;;1.98;1.12;;;9.30;99.90;;;;;;7291954;32;20476;-59
2023/01/08 06:17:10;;;;;;;1.37;0.82;;;9.30;99.90;;;;;;7295541;32;20261;-60
2023/01/08 06:21:12;;;;;;;1.60;0.82;;;9.40;99.90;;;;;;7288900;32;20126;-59
2023/01/08 06:25:14;;;;;;;2.72;1.05;;;9.40;99.90;;;;;;7287865;32;20795;-59
2023/01/08 06:29:16;;;;;;;0.95;0.70;;;9.40;99.90;;;;;;7287258;32;20104;-59
2023/01/08 06:33:18;;;;;;;1.37;0.90;;;9.40;99.90;;;;;;7285751;32;20246;-59
2023/01/08 06:37:22;;;;;;;1.50;0.80;;;9.50;99.90;;;;;;7292534;32;20126;-59
2023/01/08 06:41:23;;;;;;;1.23;0.68;;;9.50;99.90;;;;;;7294935;32;20303;-59
2023/01/08 06:45:25;;;;;;;1.23;0.75;;;9.50;99.90;;;;;;7284307;32;20180;-58
2023/01/08 06:49:27;;;;;;;2.28;0.60;;;9.50;99.90;;;;;;7290468;32;20160;-58
2023/01/08 06:53:29;;;;;;;1.80;0.50;;;9.30;99.90;;;;;;7287284;32;20200;-58
2023/01/08 06:57:31;;;;;;;1.23;0.40;;;8.90;99.90;;;;;;7294656;32;20632;-59
2023/01/08 07:01:33;;;;;;;1.58;0.50;;;8.70;99.90;;;;;;7291657;32;20146;-59
2023/01/08 07:05:34;;;;;;;1.23;0.50;;;8.50;99.90;;;;;;7297736;32;20120;-62
2023/01/08 07:09:36;;;;;;;1.05;0.35;;;8.40;99.90;;;;;;7291695;32;20104;-60
2023/01/08 07:13:38;;;;;;;2.65;0.70;;;8.30;99.90;;;;;;7295582;32;20982;-61
2023/01/08 07:17:40;;;;;;;4.37;0.60;;;8.10;99.90;;;;;;7281401;32;20131;-62
2023/01/08 07:21:41;;;;;;;1.95;0.40;;;8.00;99.90;;;;;;7283513;32;20245;-61
2023/01/08 07:25:43;;;;;;;2.92;0.70;;;7.90;99.90;;;;;;7297823;32;20159;-61
2023/01/08 07:29:45;;;;;;;1.52;0.30;;;7.90;99.90;;;;;;7285137;32;20167;-62
2023/01/08 07:33:46;;;;;;;3.70;0.50;;;7.80;99.90;;;;;;7293175;32;20134;-62
2023/01/08 07:37:48;;;;;;;7.80;3.78;;;7.80;99.90;;;;;;7292459;32;20250;-65
2023/01/08 07:41:50;;;;;;;1.83;0.40;;;7.80;99.90;;;;;;7294873;32;23499;-63
2023/01/08 07:45:51;;;;;;;2.17;0.68;;;7.70;99.90;;;;;;7298652;32;20134;-64
2023/01/08 07:49:53;;;;;;;2.65;0.55;;;7.60;99.90;;;;;;7289246;32;20576;-62
2023/01/08 07:53:55;;;;;;;3.50;0.90;;;7.70;99.90;;;;;;7285044;32;20132;-62
2023/01/08 07:57:57;;;;;;;3.22;0.47;;;7.70;99.90;;;;;;7296985;32;20120;-62
2023/01/08 08:01:59;;;;;;;1.92;0.57;;;7.70;99.90;;;;;;7297200;32;20153;-63
2023/01/08 08:06:01;;;;;;;2.53;0.45;;;7.70;99.90;;;;;;7288408;32;20100;-62
2023/01/08 08:10:04;;;;;;;4.60;0.50;;;7.70;99.90;;;;;;7288994;32;20143;-61
2023/01/08 08:14:06;;;;;;;4.22;1.00;;;7.60;99.90;;;;;;7291761;32;20100;-60
2023/01/08 08:18:08;;;;;;;2.33;0.62;;;7.60;99.90;;;;;;7290594;32;20099;-62
2023/01/08 08:22:11;;;;;;;3.55;0.60;;;7.60;99.90;;;;;;7291871;32;20123;-63
2023/01/08 08:26:13;;;;;;;2.30;0.50;;;7.50;99.90;;;;;;7293918;32;20205;-61
2023/01/08 08:30:14;;;;;;;3.50;0.70;;;7.50;99.90;;;;;;7292521;32;20131;-60
2023/01/08 08:34:16;;;;;;;2.20;0.52;;;7.40;99.90;;;;;;7291863;32;20093;-60
2023/01/08 08:38:18;;;;;;;3.70;0.52;;;7.30;99.90;;;;;;7295321;32;20214;-62
2023/01/08 08:42:20;;;;;;;4.40;0.55;;;7.20;99.90;;;;;;7298052;32;20096;-60
2023/01/08 08:46:24;;;;;;;6.00;0.52;;;7.20;99.90;;;;;;7297011;32;20214;-60
2023/01/08 08:50:26;;;;;;;4.90;1.42;;;7.20;99.90;;;;;;7295949;32;20479;-63
2023/01/08 08:54:27;;;;;;;6.75;0.70;;;7.20;99.90;;;;;;7297307;32;20104;-60
2023/01/08 08:58:29;;;;;;;2.58;0.75;;;7.10;99.90;;;;;;7293611;32;20294;-59
2023/01/08 09:02:31;;;;;;;4.93;0.80;;;7.20;99.90;;;;;;7285622;32;20498;-65
2023/01/08 09:06:33;;;;;;;6.32;0.85;;;7.10;99.90;;;;;;7295403;32;20219;-62
2023/01/08 09:10:41;;;;;;;2.83;0.77;;;7.00;99.90;;;;;;7294935;32;20096;-63
2023/01/08 09:14:42;;;;;;;5.28;0.90;;;7.00;99.90;;;;;;7286301;32;20115;-63
2023/01/08 09:18:44;;;;;;;4.45;0.90;;;7.00;99.90;;;;;;7295591;32;20249;-62
2023/01/08 09:22:46;;;;;;;7.55;0.90;;;7.10;99.90;;;;;;7290936;32;20177;-62
2023/01/08 09:26:48;;;;;;;4.60;1.05;;;7.10;99.90;;;;;;7297161;32;20304;-64
2023/01/08 09:30:49;;;;;;;4.65;0.70;;;7.10;99.90;;;;;;7294942;32;20743;-64
2023/01/08 09:34:51;;;;;;;5.65;1.00;;;7.40;99.90;;;;;;7295933;32;20630;-62
2023/01/08 09:38:53;;;;;;;7.37;1.20;;;7.60;99.90;;;;;;7294576;32;20146;-63
2023/01/08 09:42:57;;;;;;;8.02;0.80;;;7.70;99.90;;;;;;7294799;32;20127;-64
2023/01/08 09:46:59;;;;;;;10.82;1.62;;;7.80;99.90;;;;;;7292751;32;20100;-64
2023/01/08 09:51:01;;;;;;;6.93;1.20;;;8.00;99.90;;;;;;7294433;32;20206;-63
2023/01/08 09:55:11;;;;;;;7.75;1.17;;;8.30;99.90;;;;;;7289362;32;20238;-63
2023/01/08 09:59:16;;;;;;;10.23;1.73;;;8.50;99.90;;;;;;7292311;32;20552;-63
2023/01/08 10:03:18;;;;;;;4.45;0.82;;;8.70;99.90;;;;;;7291715;32;20104;-64
2023/01/08 10:07:23;;;;;;;4.50;0.90;;;8.90;99.90;;;;;;7294352;32;20270;-64
2023/01/08 10:11:28;;;;;;;7.53;1.30;;;9.20;99.90;;;;;;7291954;32;20230;-64
2023/01/08 10:15:30;;;;;;;7.12;0.77;;;9.30;99.90;;;;;;7292887;32;20308;-63
2023/01/08 10:19:31;;;;;;;4.28;0.82;;;9.50;99.90;;;;;;7292143;32;20620;-63
2023/01/08 10:23:33;;;;;;;5.72;0.98;;;9.50;99.90;;;;;;7291360;32;20203;-63
2023/01/08 10:27:57;;;;;;;4.90;0.80;;;9.40;99.90;;;;;;7291791;32;20203;-63
2023/01/08 10:32:07;;;;;;;4.97;0.90;;;9.40;99.90;;;;;;7294487;32;20470;-66
2023/01/08 10:36:13;;;;;;;4.18;0.70;;;9.40;99.90;;;;;;7298139;32;20096;-65
2023/01/08 10:40:33;;;;;;;2.58;0.60;;;9.40;99.90;;;;;;7298339;32;20384;-64
2023/01/08 10:44:35;;;;;;;5.57;0.98;;;9.40;99.90;;;;;;7296872;32;20126;-63
2023/01/08 10:48:43;;;;;;;3.67;0.80;;;9.70;99.90;;;;;;7299120;32;20413;-63
2023/01/08 10:53:01;;;;;;;3.67;0.70;;;9.80;99.90;;;;;;7298508;32;20108;-64
2023/01/08 10:57:26;;;;;;;6.37;1.15;;;9.90;99.90;;;;;;7301780;32;20192;-64
2023/01/08 11:01:30;;;;;;;4.40;1.10;;;9.90;99.90;;;;;;7293263;32;20287;-65
2023/01/08 11:05:39;;;;;;;6.50;0.82;;;10.00;99.90;;;;;;7299262;32;20109;-63
2023/01/08 11:09:47;;;;;;;5.25;0.90;;;10.00;99.90;;;;;;7298471;32;20104;-64
2023/01/08 11:14:02;;;;;;;3.60;1.17;;;10.20;99.90;;;;;;7295895;32;20153;-65
2023/01/08 11:18:23;;;;;;;2.50;0.55;;;10.40;99.90;;;;;;7291302;32;20187;-63
2023/01/08 11:22:26;;;;;;;2.17;0.75;;;10.40;99.90;;;;;;7289911;32;20100;-63
2023/01/08 11:26:28;;;;;;;2.85;0.75;;;10.40;99.90;;;;;;7300102;32;20298;-63
2023/01/08 11:30:33;;;;;;;3.55;0.80;;;10.30;99.90;;;;;;7300099;32;20197;-63
2023/01/08 11:34:50;;;;;;;2.85;0.80;;;10.40;99.90;;;;;;7299050;32;20745;-63
2023/01/08 11:38:51;;;;;;;3.08;0.88;;;10.40;99.90;;;;;;7294468;32;20241;-63
2023/01/08 11:43:16;;;;;;;4.50;0.77;;;10.60;99.90;;;;;;7298531;32;20442;-64
2023/01/08 11:47:57;;;;;;;3.22;0.65;;;10.60;99.90;;;;;;7283104;32;20092;-63
2023/01/08 11:52:17;;;;;;;2.55;0.50;;;10.60;99.90;;;;;;7274101;32;20226;-64
2023/01/08 11:56:22;;;;;;;4.05;0.70;;;10.70;99.90;;;;;;7295735;32;20396;-65
2023/01/08 12:00:43;;;;;;;2.90;0.60;;;10.60;99.90;;;;;;7296110;32;20882;-64
2023/01/08 12:04:51;;;;;;;1.48;0.57;;;10.50;99.90;;;;;;7293352;32;20116;-63
2023/01/08 12:09:28;;;;;;;2.58;0.60;;;10.50;99.90;;;;;;7295901;32;20210;-63
2023/01/08 12:14:02;;;;;;;2.45;0.43;;;10.50;99.90;;;;;;7296567;32;20213;-63
2023/01/08 12:18:37;;;;;;;4.70;0.37;;;10.40;99.90;;;;;;7284447;32;20223;-63
2023/01/08 12:23:05;;;;;;;1.60;0.40;;;9.60;99.90;;;;;;7294647;32;20201;-64
2023/01/08 12:27:39;;;;;;;2.05;0.50;;;8.90;99.90;;;;;;7296450;32;20346;-62
2023/01/08 12:32:09;;;;;;;2.37;0.30;;;8.60;99.90;;;;;;7295409;32;20105;-63
2023/01/08 12:36:19;;;;;;;0.88;0.40;;;8.50;99.90;;;;;;7296306;32;20171;-63
2023/01/08 12:40:34;;;;;;;3.22;0.40;;;8.50;99.90;;;;;;7293810;32;20294;-65
2023/01/08 12:44:36;;;;;;;1.37;0.40;;;8.60;99.90;;;;;;7293946;32;20096;-64
2023/01/08 12:48:39;;;;;;;2.37;0.40;;;8.60;99.90;;;;;;7289652;32;20104;-64
2023/01/08 12:52:48;;;;;;;5.22;0.45;;;8.60;99.90;;;;;;7293831;32;20273;-64
2023/01/08 12:56:49;;;;;;;2.78;0.70;;;8.60;99.90;;;;;;7287289;32;22008;-64
2023/01/08 13:01:05;;;;;;;3.22;0.43;;;8.50;99.90;;;;;;7293786;32;20281;-64
2023/01/08 13:05:18;;;;;;;5.37;0.60;;;8.60;99.90;;;;;;7295789;32;20116;-64
2023/01/08 13:09:24;;;;;;;1.15;0.40;;;8.60;99.90;;;;;;7298299;32;20123;-58
2023/01/08 13:13:29;;;;;;;2.22;0.50;;;8.90;99.90;;;;;;7296054;32;20125;-58
2023/01/08 13:17:31;;;;;;;2.83;0.50;;;9.10;99.90;;;;;;7295827;32;20293;-59
2023/01/08 13:21:37;;;;;;;1.90;0.60;;;9.30;99.90;;;;;;7298420;32;20214;-58
2023/01/08 13:25:50;;;;;;;3.47;0.50;;;9.30;99.90;;;;;;7293373;32;20138;-58
2023/01/08 13:29:52;;;;;;;1.92;0.47;;;9.50;99.90;;;;;;7291635;32;20105;-58
2023/01/08 13:33:54;;;;;;;1.02;0.35;;;9.70;99.90;;;;;;7297143;32;20127;-58
2023/01/08 13:38:17;;;;;;;1.05;0.45;;;9.80;99.90;;;;;;7290539;32;20107;-63
2023/01/08 13:42:21;;;;;;;1.08;0.55;;;9.80;99.90;;;;;;7293706;32;20126;-64
2023/01/08 13:46:24;;;;;;;1.92;0.30;;;9.80;99.90;;;;;;7291064;32;20549;-63
2023/01/08 13:50:29;;;;;;;1.15;0.32;;;9.80;99.90;;;;;;7296378;32;20190;-63
2023/01/08 13:54:42;;;;;;;4.00;0.60;;;9.80;99.90;;;;;;7297355;32;20179;-63
2023/01/08 13:58:50;;;;;;;1.35;0.52;;;9.80;99.90;;;;;;7295260;32;20119;-62
2023/01/08 14:02:53;;;;;;;0.68;0.30;;;9.70;99.90;;;;;;7297682;32;20194;-63
2023/01/08 14:07:14;;;;;;;1.90;0.40;;;9.80;99.90;;;;;;7293852;32;20241;-62
2023/01/08 14:11:17;;;;;;;1.80;0.40;;;10.00;99.90;;;;;;7296832;32;20153;-63
2023/01/08 14:15:26;;;;;;;0.40;0.20;;;10.20;99.90;;;;;;7296046;32;20234;-64
2023/01/08 14:19:28;;;;;;;0.68;0.30;;;10.60;99.90;;;;;;7296765;32;20246;-64
2023/01/08 14:23:36;;;;;;;2.30;0.45;;;10.60;99.90;;;;;;7281332;32;20224;-63
2023/01/08 14:27:38;;;;;;;2.25;0.47;;;10.70;99.90;;;;;;7293570;32;20246;-64
2023/01/08 14:31:51;;;;;;;1.42;0.30;;;10.30;99.90;;;;;;7293785;32;20095;-64
2023/01/08 14:35:55;;;;;;;1.87;1.12;;;10.10;99.90;;;;;;7283936;32;20108;-64
2023/01/08 14:39:57;;;;;;;1.17;0.50;;;10.10;99.90;;;;;;7296879;32;20104;-62
2023/01/08 14:43:59;;;;;;;1.48;0.40;;;10.10;99.90;;;;;;7294623;32;20202;-63
2023/01/08 14:48:21;;;;;;;1.12;0.30;;;9.90;99.90;;;;;;7296666;32;20104;-64
2023/01/08 14:52:23;;;;;;;1.25;0.30;;;9.80;99.90;;;;;;7294508;32;20108;-64
2023/01/08 14:56:28;;;;;;;2.00;0.40;;;9.80;99.90;;;;;;7293415;32;20096;-63
2023/01/08 15:00:31;;;;;;;1.85;0.40;;;9.70;99.90;;;;;;7292226;32;20126;-62
2023/01/08 15:04:32;;;;;;;0.95;0.45;;;9.50;99.90;;;;;;7289302;32;20164;-61
2023/01/08 15:08:42;;;;;;;2.08;0.40;;;9.50;99.90;;;;;;7295117;32;20168;-62
2023/01/08 15:12:43;;;;;;;3.15;0.60;;;9.50;99.90;;;;;;7293977;32;20157;-62
2023/01/08 15:16:46;;;;;;;1.17;0.35;;;9.50;99.90;;;;;;7295077;32;20217;-63
2023/01/08 15:20:48;;;;;;;2.47;0.50;;;9.40;99.90;;;;;;7285079;32;20171;-62
2023/01/08 15:25:05;;;;;;;4.40;0.60;;;9.30;99.90;;;;;;7284224;32;20149;-63
2023/01/08 15:29:14;;;;;;;3.23;0.53;;;9.20;99.90;;;;;;7294656;32;20104;-58
2023/01/08 15:33:22;;;;;;;5.07;0.68;;;9.20;99.90;;;;;;7293017;32;20302;-59
2023/01/08 15:37:24;;;;;;;1.25;0.40;;;9.40;99.90;;;;;;7274487;32;20127;-63
2023/01/08 15:45:57;;;;;;;3.67;0.70;;;9.30;99.90;;;;;;7289305;32;20636;-63
2023/01/08 15:49:58;;;;;;;1.62;0.50;;;9.20;99.90;;;;;;7292988;32;21594;-64
2023/01/08 15:54:01;;;;;;;1.00;0.45;;;9.20;99.90;;;;;;7290172;32;20118;-63
2023/01/08 15:58:03;;;;;;;2.17;0.50;;;9.10;99.90;;;;;;7293795;32;20115;-61
2023/01/08 16:02:04;;;;;;;2.28;0.37;;;9.20;99.90;;;;;;7279486;32;20123;-60
2023/01/08 16:06:07;;;;;;;2.70;0.43;;;9.30;99.90;;;;;;7296587;32;20266;-61
2023/01/08 16:10:09;;;;;;;1.70;0.55;;;9.20;99.90;;;;;;7295473;32;21453;-62
2023/01/08 16:14:11;;;;;;;5.37;1.62;;;9.30;99.90;;;;;;7293805;32;21717;-60
2023/01/08 16:18:13;;;;;;;2.47;0.95;;;9.30;99.90;;;;;;7295203;32;20475;-60
2023/01/08 16:22:14;;;;;;;2.22;0.60;;;9.40;99.90;;;;;;7294569;32;20475;-61
2023/01/08 16:26:16;;;;;;;1.87;0.40;;;9.30;99.90;;;;;;7290996;32;20100;-61
2023/01/08 16:30:18;;;;;;;3.58;0.40;;;9.30;99.90;;;;;;7290166;32;20438;-61
2023/01/08 16:34:20;;;;;;;2.87;0.88;;;9.20;99.90;;;;;;7287786;32;20567;-60
2023/01/08 16:38:24;;;;;;;0.95;0.37;;;9.30;99.90;;;;;;7291474;32;20481;-60
2023/01/08 16:42:25;;;;;;;4.28;0.73;;;9.30;99.90;;;;;;7284859;32;20140;-59
2023/01/08 16:46:28;;;;;;;1.30;0.50;;;9.20;99.90;;;;;;7286301;32;20210;-60
2023/01/08 16:50:31;;;;;;;3.03;0.60;;;9.20;99.90;;;;;;7287066;32;20882;-61
2023/01/08 16:54:33;;;;;;;1.42;0.60;;;9.10;99.90;;;;;;7293404;32;20211;-61
2023/01/08 16:58:35;;;;;;;1.60;0.43;;;8.90;99.90;;;;;;7290754;32;20100;-62
2023/01/08 17:02:37;;;;;;;2.62;0.60;;;8.90;99.90;;;;;;7292452;32;20096;-61
2023/01/08 17:06:39;;;;;;;2.53;0.52;;;9.00;99.90;;;;;;7292454;32;20294;-62
2023/01/08 17:10:42;;;;;;;1.50;0.45;;;9.00;99.90;;;;;;7296322;32;20092;-61
2023/01/08 17:14:45;;;;;;;3.12;0.90;;;9.00;99.90;;;;;;7277642;32;20505;-62
2023/01/08 17:18:47;;;;;;;3.00;0.70;;;8.90;99.90;;;;;;7293363;32;20486;-62
2023/01/08 17:22:48;;;;;;;2.58;0.40;;;8.80;99.90;;;;;;7290136;32;20192;-63
2023/01/08 17:26:50;;;;;;;2.30;0.50;;;8.80;99.90;;;;;;7295446;32;20235;-62
2023/01/08 17:30:52;;;;;;;3.40;0.52;;;8.70;99.90;;;;;;7293694;32;20217;-60
2023/01/08 17:34:53;;;;;;;1.70;0.50;;;8.60;99.90;;;;;;7294201;32;20096;-61
2023/01/08 17:38:55;;;;;;;1.67;0.50;;;8.50;99.90;;;;;;7294329;32;20112;-61
2023/01/08 17:42:57;;;;;;;3.72;0.60;;;8.40;99.90;;;;;;7293058;32;20310;-59
2023/01/08 17:46:58;;;;;;;1.17;0.35;;;8.30;99.90;;;;;;7292455;32;20687;-59
2023/01/08 17:51:05;;;;;;;1.23;0.50;;;8.40;99.90;;;;;;7291671;32;20152;-60
2023/01/08 17:55:10;;;;;;;2.95;0.57;;;8.40;99.90;;;;;;7293746;32;20122;-63
2023/01/08 17:59:16;;;;;;;1.67;0.70;;;8.30;99.90;;;;;;7295050;32;20179;-60
2023/01/08 18:03:18;;;;;;;2.05;0.62;;;8.30;99.90;;;;;;7291807;32;20243;-61
2023/01/08 18:07:19;;;;;;;3.95;0.65;;;8.20;99.90;;;;;;7290809;32;20175;-59
2023/01/08 18:11:21;;;;;;;2.65;0.90;;;8.20;99.90;;;;;;7290622;32;20103;-62
2023/01/08 18:15:23;;;;;;;5.80;1.42;;;8.20;99.90;;;;;;7293327;32;20231;-60
2023/01/08 18:19:25;;;;;;;2.72;1.12;;;8.10;99.90;;;;;;7297189;32;20154;-59
2023/01/08 18:23:27;;;;;;;2.03;0.88;;;8.10;99.90;;;;;;7294373;32;20499;-60
2023/01/08 18:27:29;;;;;;;5.55;1.08;;;8.20;99.90;;;;;;7294376;32;20151;-60
2023/01/08 18:31:30;;;;;;;2.37;1.08;;;8.10;99.90;;;;;;7290546;32;20269;-60
2023/01/08 18:35:32;;;;;;;6.65;1.67;;;7.90;99.90;;;;;;7295688;32;20233;-61
2023/01/08 18:39:34;;;;;;;5.35;1.55;;;8.00;99.90;;;;;;7296097;32;20119;-60
2023/01/08 18:43:36;;;;;;;5.28;1.27;;;7.90;99.90;;;;;;7294656;32;20710;-60
2023/01/08 18:47:38;;;;;;;4.60;1.20;;;7.80;99.90;;;;;;7284854;32;20118;-62
2023/01/08 18:51:41;;;;;;;4.90;1.40;;;7.80;99.90;;;;;;7281498;32;20646;-61
2023/01/08 18:55:43;;;;;;;3.92;1.40;;;7.80;99.90;;;;;;7292139;32;20624;-62
2023/01/08 18:59:46;;;;;;;9.32;2.00;;;7.90;99.90;;;;;;7298012;32;20248;-61
2023/01/08 19:03:48;;;;;;;2.42;1.30;;;7.80;99.90;;;;;;7299438;32;20143;-62
2023/01/08 19:07:50;;;;;;;3.53;1.42;;;7.70;99.90;;;;;;7296188;32;20179;-61
2023/01/08 19:11:51;;;;;;;2.75;1.15;;;7.80;99.90;;;;;;7299197;32;20285;-60
2023/01/08 19:15:53;;;;;;;4.45;1.25;;;7.70;99.90;;;;;;7297782;32;20137;-60
2023/01/08 19:19:55;;;;;;;6.03;1.12;;;7.80;99.90;;;;;;7296888;32;20187;-61
2023/01/08 19:23:56;;;;;;;4.30;1.80;;;7.90;99.90;;;;;;7300275;32;20096;-61
2023/01/08 19:27:58;;;;;;;6.40;2.17;;;7.90;99.90;;;;;;7296624;32;20108;-61
2023/01/08 19:32:00;;;;;;;5.90;1.70;;;8.00;99.90;;;;;;7297719;32;20108;-60
2023/01/08 19:36:11;;;;;;;6.12;1.87;;;8.10;99.90;;;;;;7294535;32;20092;-60
2023/01/08 19:40:13;;;;;;;5.32;2.00;;;8.10;99.90;;;;;;7297129;32;20288;-62
2023/01/08 19:44:15;;;;;;;3.95;1.08;;;8.10;99.90;;;;;;7294013;32;20576;-61
2023/01/08 19:48:17;;;;;;;2.28;1.17;;;7.90;99.90;;;;;;7280438;32;20207;-61
2023/01/08 19:52:18;;;;;;;3.20;1.05;;;8.00;99.90;;;;;;7293052;32;20187;-62
2023/01/08 19:56:20;;;;;;;3.47;1.20;;;8.00;99.90;;;;;;7298755;32;20569;-61
2023/01/08 20:00:22;;;;;;;4.45;1.25;;;8.10;99.90;;;;;;7296470;32;20184;-61
2023/01/08 20:04:25;;;;;;;3.05;1.20;;;8.00;99.90;;;;;;7284394;32;20230;-60
2023/01/08 20:08:27;;;;;;;5.22;1.37;;;8.00;99.90;;;;;;7297800;32;20096;-61
2023/01/08 20:12:29;;;;;;;2.92;1.17;;;8.00;99.90;;;;;;7292293;32;20099;-61
2023/01/08 20:16:31;;;;;;;6.22;1.52;;;7.90;99.90;;;;;;7297372;32;20146;-60
2023/01/08 20:20:33;;;;;;;3.40;1.30;;;7.90;99.90;;;;;;7295584;32;20272;-61
2023/01/08 20:24:36;;;;;;;3.12;1.30;;;7.80;99.90;;;;;;7298299;32;20320;-61
2023/01/08 20:28:38;;;;;;;3.15;1.02;;;7.90;99.90;;;;;;7296005;32;20096;-62
2023/01/08 20:32:40;;;;;;;5.45;1.17;;;8.00;99.90;;;;;;7296062;32;20692;-62
2023/01/08 20:36:43;;;;;;;2.95;0.80;;;8.00;99.90;;;;;;7272093;32;20100;-61
2023/01/08 20:40:45;;;;;;;4.25;0.98;;;8.00;99.90;;;;;;7295132;32;20680;-62
2023/01/08 20:44:46;;;;;;;5.30;1.15;;;8.20;99.90;;;;;;7290307;32;20095;-62
2023/01/08 20:48:48;;;;;;;3.17;1.20;;;8.20;99.90;;;;;;7292512;32;20122;-63
2023/01/08 20:52:50;;;;;;;1.95;0.85;;;8.30;99.90;;;;;;7295473;32;20122;-62
2023/01/08 20:56:55;;;;;;;3.12;0.90;;;8.30;99.90;;;;;;7297248;32;20215;-62
2023/01/08 21:01:10;;;;;;;5.22;0.93;;;8.40;99.90;;;;;;7295544;32;20670;-63
2023/01/08 21:05:12;;;;;;;2.22;0.77;;;8.30;99.90;;;;;;7297534;32;20279;-62
2023/01/08 21:09:16;;;;;;;3.17;0.85;;;8.40;99.90;;;;;;7291856;32;20704;-63
2023/01/08 21:13:18;;;;;;;3.85;1.40;;;8.40;99.90;;;;;;7296517;32;20118;-60
2023/01/08 21:17:19;;;;;;;3.72;1.00;;;8.50;99.90;;;;;;7296295;32;20162;-61
2023/01/08 21:21:28;;;;;;;3.22;0.93;;;8.50;99.90;;;;;;7281498;32;20643;-61
2023/01/08 21:25:33;;;;;;;2.05;0.80;;;8.60;99.90;;;;;;7289910;32;20148;-60
2023/01/08 21:29:35;;;;;;;2.62;0.80;;;8.50;99.90;;;;;;7300025;32;20107;-60
2023/01/08 21:33:37;;;;;;;2.55;0.62;;;8.60;99.90;;;;;;7284619;32;20282;-60